createdAt,value
2018-12-09T00:01:43.719Z,22.56
2018-12-09T00:04:10.358Z,22.61
2018-12-09T00:06:37.045Z,22.68
2018-12-09T00:09:03.743Z,22.74
2018-12-09T00:11:30.393Z,22.75
2018-12-09T00:13:57.049Z,22.85
2018-12-09T00:16:23.688Z,22.89
2018-12-09T00:18:50.375Z,22.90
2018-12-09T00:21:17.021Z,22.91
2018-12-09T00:23:43.711Z,22.92
2018-12-09T00:26:10.401Z,22.96
2018-12-09T00:28:37.043Z,22.95
2018-12-09T00:31:03.687Z,22.95
2018-12-09T00:33:30.395Z,22.98
2018-12-09T00:35:57.043Z,22.93
2018-12-09T00:38:23.675Z,22.95
2018-12-09T00:40:50.319Z,22.94
2018-12-09T00:43:16.962Z,22.98
2018-12-09T00:45:43.648Z,22.96
2018-12-09T00:48:10.283Z,22.98
2018-12-09T00:50:36.939Z,22.98
2018-12-09T00:53:03.642Z,22.99
2018-12-09T00:55:30.301Z,22.94
2018-12-09T00:57:57.102Z,22.97
2018-12-09T01:00:23.642Z,22.96
2018-12-09T01:02:50.294Z,22.95
2018-12-09T01:05:16.944Z,22.96
2018-12-09T01:07:43.640Z,22.98
2018-12-09T01:10:10.277Z,22.99
2018-12-09T01:12:37.034Z,22.97
2018-12-09T01:15:03.727Z,22.97
2018-12-09T01:17:30.424Z,22.98
2018-12-09T01:19:57.112Z,22.98
2018-12-09T01:22:23.755Z,22.99
2018-12-09T01:24:50.407Z,23.01
2018-12-09T01:27:17.113Z,23.01
2018-12-09T01:29:43.756Z,23.01
2018-12-09T01:32:10.388Z,23.00
2018-12-09T01:34:37.033Z,22.99
2018-12-09T01:37:03.668Z,23.02
2018-12-09T01:39:30.351Z,23.01
2018-12-09T01:41:56.989Z,23.01
2018-12-09T01:44:23.726Z,23.02
2018-12-09T01:46:50.388Z,23.01
2018-12-09T01:49:17.033Z,23.04
2018-12-09T01:51:43.731Z,23.05
2018-12-09T01:54:10.365Z,23.02
2018-12-09T01:56:37.019Z,23.06
2018-12-09T01:59:03.674Z,23.05
2018-12-09T02:01:30.309Z,23.06
2018-12-09T02:03:57.018Z,23.05
2018-12-09T02:06:23.663Z,23.02
2018-12-09T02:08:50.304Z,23.02
2018-12-09T02:11:16.959Z,23.03
2018-12-09T02:13:43.599Z,23.00
2018-12-09T02:16:10.296Z,22.99
2018-12-09T02:18:36.932Z,22.99
2018-12-09T02:21:03.627Z,22.98
2018-12-09T02:23:30.265Z,22.97
2018-12-09T02:25:56.960Z,22.97
2018-12-09T02:28:23.610Z,23.01
2018-12-09T02:30:50.303Z,22.97
2018-12-09T02:33:16.941Z,22.95
2018-12-09T02:35:43.630Z,22.98
2018-12-09T02:38:10.289Z,22.94
2018-12-09T02:40:36.975Z,22.98
2018-12-09T02:43:03.612Z,22.98
2018-12-09T02:45:30.265Z,22.97
2018-12-09T02:47:56.903Z,22.93
2018-12-09T02:50:23.584Z,22.99
2018-12-09T02:52:50.233Z,22.93
2018-12-09T02:55:16.869Z,22.93
2018-12-09T02:57:43.512Z,22.95
2018-12-09T03:00:10.211Z,22.93
2018-12-09T03:02:36.864Z,22.92
2018-12-09T03:05:03.500Z,22.97
2018-12-09T03:07:30.148Z,22.95
2018-12-09T03:09:56.792Z,22.94
2018-12-09T03:12:23.480Z,22.91
2018-12-09T03:14:50.142Z,22.95
2018-12-09T03:17:16.838Z,22.97
2018-12-09T03:19:43.485Z,23.00
2018-12-09T03:22:10.174Z,23.00
2018-12-09T03:24:36.817Z,23.00
2018-12-09T03:27:03.533Z,23.05
2018-12-09T03:29:30.192Z,23.00
2018-12-09T03:31:56.933Z,23.03
2018-12-09T03:34:23.715Z,23.03
2018-12-09T03:36:50.327Z,23.03
2018-12-09T03:39:17.022Z,23.04
2018-12-09T03:41:43.658Z,23.06
2018-12-09T03:44:10.324Z,23.06
2018-12-09T03:46:36.963Z,23.07
2018-12-09T03:49:03.665Z,23.08
2018-12-09T03:51:30.388Z,23.09
2018-12-09T03:53:57.032Z,23.10
2018-12-09T03:56:23.720Z,23.08
2018-12-09T03:58:50.367Z,23.07
2018-12-09T04:01:17.002Z,23.08
2018-12-09T04:03:43.653Z,23.08
2018-12-09T04:06:10.302Z,23.09
2018-12-09T04:08:36.998Z,23.10
2018-12-09T04:11:03.640Z,23.10
2018-12-09T04:13:30.347Z,23.06
2018-12-09T04:15:57.007Z,23.06
2018-12-09T04:18:23.653Z,23.02
2018-12-09T04:20:50.290Z,23.03
2018-12-09T04:23:16.992Z,23.05
2018-12-09T04:25:43.641Z,23.06
2018-12-09T04:28:10.292Z,23.03
2018-12-09T04:30:36.942Z,23.00
2018-12-09T04:33:03.630Z,23.01
2018-12-09T04:35:30.359Z,22.99
2018-12-09T04:37:56.980Z,23.00
2018-12-09T04:40:23.629Z,22.97
2018-12-09T04:42:50.264Z,22.95
2018-12-09T04:45:16.959Z,22.98
2018-12-09T04:47:43.601Z,23.00
2018-12-09T04:50:10.266Z,22.98
2018-12-09T04:52:36.961Z,22.98
2018-12-09T04:55:03.603Z,22.95
2018-12-09T04:57:30.293Z,22.95
2018-12-09T04:59:56.951Z,22.95
2018-12-09T05:02:23.642Z,22.98
2018-12-09T05:04:50.349Z,22.95
2018-12-09T05:07:17.053Z,22.94
2018-12-09T05:09:43.750Z,22.95
2018-12-09T05:12:10.389Z,22.92
2018-12-09T05:14:37.038Z,22.96
2018-12-09T05:17:03.684Z,22.96
2018-12-09T05:19:30.342Z,22.94
2018-12-09T05:21:57.145Z,22.94
2018-12-09T05:24:23.793Z,22.93
2018-12-09T05:26:50.440Z,22.94
2018-12-09T05:29:17.229Z,22.91
2018-12-09T05:31:43.873Z,22.93
2018-12-09T05:34:10.565Z,22.93
2018-12-09T05:36:37.214Z,22.94
2018-12-09T05:39:03.867Z,22.89
2018-12-09T05:41:30.552Z,22.93
2018-12-09T05:43:57.188Z,22.93
2018-12-09T05:46:23.939Z,22.96
2018-12-09T05:48:50.481Z,22.94
2018-12-09T05:51:17.126Z,22.92
2018-12-09T05:53:43.824Z,22.91
2018-12-09T05:56:10.460Z,22.90
2018-12-09T05:58:37.124Z,22.90
2018-12-09T06:01:03.770Z,22.87
2018-12-09T06:03:30.562Z,22.91
2018-12-09T06:05:57.205Z,22.91
2018-12-09T06:08:23.850Z,22.91
2018-12-09T06:10:50.508Z,22.94
2018-12-09T06:13:17.149Z,22.90
2018-12-09T06:15:43.841Z,22.91
2018-12-09T06:18:10.476Z,22.93
2018-12-09T06:20:37.220Z,22.94
2018-12-09T06:23:03.868Z,22.94
2018-12-09T06:25:30.552Z,22.91
2018-12-09T06:27:57.250Z,22.90
2018-12-09T06:30:23.937Z,22.92
2018-12-09T06:32:50.633Z,22.96
2018-12-09T06:35:17.272Z,22.93
2018-12-09T06:37:44.034Z,22.96
2018-12-09T06:40:10.671Z,22.96
2018-12-09T06:42:37.325Z,22.92
2018-12-09T06:45:03.988Z,22.91
2018-12-09T06:47:30.638Z,22.91
2018-12-09T06:49:57.277Z,22.90
2018-12-09T06:52:24.065Z,22.94
2018-12-09T06:54:50.718Z,22.91
2018-12-09T06:57:17.359Z,22.90
2018-12-09T06:59:44.022Z,22.92
2018-12-09T07:02:10.672Z,22.92
2018-12-09T07:04:37.343Z,22.91
2018-12-09T07:07:03.991Z,22.96
2018-12-09T07:09:30.642Z,22.94
2018-12-09T07:11:57.332Z,22.97
2018-12-09T07:14:23.980Z,22.93
2018-12-09T07:16:50.725Z,22.96
2018-12-09T07:19:17.367Z,22.94
2018-12-09T07:21:44.027Z,22.95
2018-12-09T07:24:10.715Z,22.97
2018-12-09T07:26:37.350Z,22.98
2018-12-09T07:29:04.047Z,22.96
2018-12-09T07:31:30.697Z,22.97
2018-12-09T07:33:58.636Z,22.99
2018-12-09T07:36:23.993Z,22.98
2018-12-09T07:38:50.647Z,22.93
2018-12-09T07:41:17.292Z,22.95
2018-12-09T07:43:43.948Z,22.95
2018-12-09T07:46:10.655Z,22.98
2018-12-09T07:48:38.683Z,22.95
2018-12-09T07:51:03.944Z,22.95
2018-12-09T07:53:30.625Z,22.93
2018-12-09T07:55:57.265Z,22.70
2018-12-09T07:58:23.961Z,22.51
2018-12-09T08:00:50.597Z,22.49
2018-12-09T08:03:17.273Z,22.70
2018-12-09T08:05:43.914Z,22.80
2018-12-09T08:08:10.572Z,22.84
2018-12-09T08:10:37.291Z,22.90
2018-12-09T08:13:03.936Z,22.97
2018-12-09T08:15:31.922Z,23.04
2018-12-09T08:17:57.278Z,23.08
2018-12-09T08:20:23.919Z,23.10
2018-12-09T08:22:50.597Z,23.10
2018-12-09T08:25:17.284Z,23.05
2018-12-09T08:27:44.005Z,23.02
2018-12-09T08:30:10.645Z,23.01
2018-12-09T08:32:37.280Z,23.00
2018-12-09T08:35:03.940Z,23.00
2018-12-09T08:37:30.589Z,22.97
2018-12-09T08:39:57.249Z,22.97
2018-12-09T08:42:23.895Z,22.96
2018-12-09T08:44:50.585Z,22.99
2018-12-09T08:47:17.222Z,22.96
2018-12-09T08:49:43.861Z,22.99
2018-12-09T08:52:10.518Z,22.96
2018-12-09T08:54:37.163Z,23.00
2018-12-09T08:57:03.849Z,23.00
2018-12-09T08:59:30.490Z,23.02
2018-12-09T09:01:57.135Z,23.03
2018-12-09T09:04:23.789Z,23.07
2018-12-09T09:06:50.480Z,23.07
2018-12-09T09:09:17.175Z,23.10
2018-12-09T09:11:43.818Z,23.08
2018-12-09T09:14:10.471Z,23.09
2018-12-09T09:16:37.150Z,23.11
2018-12-09T09:19:03.857Z,23.11
2018-12-09T09:21:30.495Z,23.10
2018-12-09T09:24:00.101Z,23.13
2018-12-09T09:26:26.754Z,23.13
2018-12-09T09:28:53.395Z,23.15
2018-12-09T09:31:20.096Z,23.14
2018-12-09T09:33:46.789Z,23.15
2018-12-09T09:36:13.429Z,23.16
2018-12-09T09:38:40.096Z,23.16
2018-12-09T09:41:06.739Z,23.16
2018-12-09T09:43:33.453Z,23.16
2018-12-09T09:46:00.100Z,23.17
2018-12-09T09:48:26.749Z,23.19
2018-12-09T09:50:53.410Z,23.19
2018-12-09T09:53:20.050Z,23.22
2018-12-09T09:55:46.699Z,23.21
2018-12-09T09:58:14.649Z,23.21
2018-12-09T10:00:39.996Z,23.24
2018-12-09T10:03:06.646Z,23.26
2018-12-09T10:05:33.293Z,23.28
2018-12-09T10:07:59.932Z,23.29
2018-12-09T10:10:26.586Z,23.27
2018-12-09T10:12:53.234Z,23.28
2018-12-09T10:15:19.886Z,23.31
2018-12-09T10:17:46.602Z,23.34
2018-12-09T10:20:13.343Z,23.35
2018-12-09T10:22:40.021Z,23.37
2018-12-09T10:25:06.669Z,23.40
2018-12-09T10:27:33.359Z,23.40
2018-12-09T10:30:00.460Z,23.40
2018-12-09T10:32:27.092Z,23.43
2018-12-09T10:34:53.738Z,23.43
2018-12-09T10:37:20.399Z,23.46
2018-12-09T10:39:47.187Z,23.44
2018-12-09T10:42:13.840Z,23.44
2018-12-09T10:44:40.478Z,23.45
2018-12-09T10:47:07.123Z,23.47
2018-12-09T10:49:33.770Z,23.48
2018-12-09T10:52:00.410Z,23.52
2018-12-09T10:54:27.099Z,23.50
2018-12-09T10:56:53.752Z,23.53
2018-12-09T10:59:20.404Z,23.58
2018-12-09T11:01:47.087Z,23.58
2018-12-09T11:04:13.809Z,23.57
2018-12-09T11:06:40.445Z,23.59
2018-12-09T11:09:07.146Z,23.62
2018-12-09T11:11:33.785Z,23.62
2018-12-09T11:14:00.488Z,23.64
2018-12-09T11:16:27.128Z,23.62
2018-12-09T11:18:53.771Z,23.66
2018-12-09T11:21:20.456Z,23.62
2018-12-09T11:23:47.107Z,23.65
2018-12-09T11:26:13.740Z,23.66
2018-12-09T11:28:40.395Z,23.69
2018-12-09T11:31:07.074Z,23.66
2018-12-09T11:33:33.723Z,23.69
2018-12-09T11:36:00.431Z,23.65
2018-12-09T11:38:27.092Z,23.69
2018-12-09T11:40:53.780Z,23.71
2018-12-09T11:43:20.421Z,23.69
2018-12-09T11:45:47.070Z,23.70
2018-12-09T11:48:13.758Z,23.68
2018-12-09T11:50:40.394Z,23.67
2018-12-09T11:53:07.085Z,23.68
2018-12-09T11:55:33.724Z,23.67
2018-12-09T11:58:00.385Z,23.67
2018-12-09T12:00:27.125Z,23.69
2018-12-09T12:02:53.772Z,23.67
2018-12-09T12:05:20.472Z,23.70
2018-12-09T12:07:47.185Z,23.70
2018-12-09T12:10:13.834Z,23.73
2018-12-09T12:12:40.476Z,23.74
2018-12-09T12:15:07.180Z,23.75
2018-12-09T12:17:33.818Z,23.76
2018-12-09T12:20:00.472Z,23.76
2018-12-09T12:22:27.108Z,23.74
2018-12-09T12:24:53.788Z,23.76
2018-12-09T12:27:21.520Z,23.75
2018-12-09T12:29:48.162Z,23.75
2018-12-09T12:32:14.805Z,23.78
2018-12-09T12:34:41.515Z,23.80
2018-12-09T12:37:08.206Z,23.80
2018-12-09T12:39:34.897Z,23.79
2018-12-09T12:42:01.548Z,23.81
2018-12-09T12:44:28.201Z,23.79
2018-12-09T12:46:54.839Z,23.82
2018-12-09T12:49:24.278Z,23.80
2018-12-09T12:51:51.007Z,23.82
2018-12-09T12:54:17.653Z,23.80
2018-12-09T12:56:44.352Z,23.83
2018-12-09T12:59:12.340Z,23.75
2018-12-09T13:01:37.707Z,23.75
2018-12-09T13:04:04.345Z,23.76
2018-12-09T13:06:30.983Z,23.72
2018-12-09T13:08:57.684Z,23.71
2018-12-09T13:11:24.374Z,23.72
2018-12-09T13:13:51.072Z,23.72
2018-12-09T13:16:17.719Z,23.71
2018-12-09T13:18:44.363Z,23.71
2018-12-09T13:21:11.016Z,23.74
2018-12-09T13:23:37.671Z,23.76
2018-12-09T13:26:04.366Z,23.69
2018-12-09T13:28:31.021Z,23.72
2018-12-09T13:30:57.669Z,23.71
2018-12-09T13:33:24.361Z,23.71
2018-12-09T13:35:51.057Z,23.72
2018-12-09T13:38:17.700Z,23.72
2018-12-09T13:40:44.426Z,23.67
2018-12-09T13:43:11.071Z,23.70
2018-12-09T13:45:37.772Z,23.69
2018-12-09T13:48:04.411Z,23.69
2018-12-09T13:50:31.072Z,23.67
2018-12-09T13:52:57.719Z,23.66
2018-12-09T13:55:24.423Z,23.67
2018-12-09T13:57:51.130Z,23.65
2018-12-09T14:00:17.767Z,23.64
2018-12-09T14:02:44.406Z,23.61
2018-12-09T14:05:11.079Z,23.64
2018-12-09T14:07:37.737Z,23.64
2018-12-09T14:10:04.442Z,23.62
2018-12-09T14:12:31.091Z,23.64
2018-12-09T14:14:57.853Z,23.61
2018-12-09T14:17:24.557Z,23.63
2018-12-09T14:19:51.196Z,23.64
2018-12-09T14:22:17.840Z,23.61
2018-12-09T14:24:44.612Z,23.61
2018-12-09T14:27:13.227Z,23.59
2018-12-09T14:29:38.001Z,23.56
2018-12-09T14:32:04.707Z,23.57
2018-12-09T14:34:31.347Z,23.55
2018-12-09T14:36:58.045Z,23.57
2018-12-09T14:39:24.712Z,23.53
2018-12-09T14:41:51.406Z,23.56
2018-12-09T14:44:18.048Z,23.52
2018-12-09T14:46:44.741Z,23.50
2018-12-09T14:49:11.437Z,23.50
2018-12-09T14:51:38.076Z,23.51
2018-12-09T14:54:04.773Z,23.49
2018-12-09T14:56:31.479Z,23.48
2018-12-09T14:58:58.205Z,23.48
2018-12-09T15:01:24.852Z,23.48
2018-12-09T15:03:51.494Z,23.48
2018-12-09T15:06:18.145Z,23.44
2018-12-09T15:08:44.868Z,23.45
2018-12-09T15:11:11.525Z,23.41
2018-12-09T15:13:38.192Z,23.42
2018-12-09T15:16:04.918Z,23.42
2018-12-09T15:18:33.356Z,23.42
2018-12-09T15:21:00.615Z,23.40
2018-12-09T15:23:26.803Z,23.41
2018-12-09T15:25:53.464Z,23.41
2018-12-09T15:28:20.147Z,23.39
2018-12-09T15:30:46.801Z,23.35
2018-12-09T15:33:13.444Z,23.36
2018-12-09T15:35:40.088Z,23.34
2018-12-09T15:38:06.737Z,23.36
2018-12-09T15:40:33.427Z,23.35
2018-12-09T15:43:00.135Z,23.36
2018-12-09T15:45:26.781Z,23.32
2018-12-09T15:47:53.443Z,23.31
2018-12-09T15:50:20.151Z,23.28
2018-12-09T15:52:46.805Z,23.26
2018-12-09T15:55:13.451Z,23.15
2018-12-09T15:57:40.099Z,23.07
2018-12-09T16:00:06.746Z,22.79
2018-12-09T16:02:33.459Z,22.60
2018-12-09T16:05:00.101Z,22.65
2018-12-09T16:07:26.745Z,22.85
2018-12-09T16:09:53.408Z,22.90
2018-12-09T16:12:20.050Z,22.95
2018-12-09T16:14:46.747Z,23.03
2018-12-09T16:17:13.402Z,23.06
2018-12-09T16:19:40.057Z,23.11
2018-12-09T16:22:06.725Z,23.14
2018-12-09T16:24:33.419Z,23.13
2018-12-09T16:27:00.065Z,23.17
2018-12-09T16:29:26.763Z,23.19
2018-12-09T16:31:53.397Z,23.17
2018-12-09T16:34:20.062Z,23.24
2018-12-09T16:36:46.708Z,23.19
2018-12-09T16:39:13.403Z,23.24
2018-12-09T16:41:40.049Z,23.20
2018-12-09T16:44:06.710Z,23.20
2018-12-09T16:46:33.356Z,23.17
2018-12-09T16:48:59.999Z,23.22
2018-12-09T16:51:26.707Z,23.23
2018-12-09T16:53:53.361Z,23.21
2018-12-09T16:56:20.096Z,23.16
2018-12-09T16:58:46.705Z,23.24
2018-12-09T17:01:13.421Z,23.16
2018-12-09T17:03:40.063Z,23.16
2018-12-09T17:06:06.703Z,23.14
2018-12-09T17:08:33.365Z,23.15
2018-12-09T17:10:59.998Z,23.17
2018-12-09T17:13:26.817Z,23.13
2018-12-09T17:15:53.466Z,23.14
2018-12-09T17:18:20.107Z,23.11
2018-12-09T17:20:46.760Z,23.11
2018-12-09T17:23:13.436Z,23.10
2018-12-09T17:25:40.087Z,23.08
2018-12-09T17:28:06.753Z,23.10
2018-12-09T17:30:33.487Z,23.02
2018-12-09T17:33:00.212Z,23.05
2018-12-09T17:35:26.928Z,23.04
2018-12-09T17:37:53.575Z,23.05
2018-12-09T17:40:20.285Z,23.03
2018-12-09T17:42:46.957Z,23.02
2018-12-09T17:45:13.721Z,22.98
2018-12-09T17:47:40.403Z,23.01
2018-12-09T17:50:07.107Z,22.98
2018-12-09T17:52:33.753Z,23.00
2018-12-09T17:55:00.416Z,22.95
2018-12-09T17:57:27.062Z,23.00
2018-12-09T17:59:53.698Z,22.96
2018-12-09T18:02:20.403Z,22.95
2018-12-09T18:04:47.068Z,22.96
2018-12-09T18:07:13.877Z,22.98
2018-12-09T18:09:40.632Z,23.01
2018-12-09T18:12:07.347Z,22.99
2018-12-09T18:14:34.197Z,23.02
2018-12-09T18:17:00.942Z,23.00
2018-12-09T18:19:29.994Z,23.00
2018-12-09T18:21:56.799Z,23.02
2018-12-09T18:24:23.799Z,23.02
2018-12-09T18:26:50.484Z,23.03
2018-12-09T18:29:17.333Z,23.01
2018-12-09T18:31:44.061Z,23.01
2018-12-09T18:34:10.904Z,23.02
2018-12-09T18:36:37.706Z,23.04
2018-12-09T18:39:04.630Z,23.01
2018-12-09T18:41:31.560Z,23.02
2018-12-09T18:43:58.493Z,23.04
2018-12-09T18:46:25.460Z,23.03
2018-12-09T18:48:52.436Z,23.05
2018-12-09T18:51:19.715Z,23.03
2018-12-09T18:53:46.584Z,23.03
2018-12-09T18:56:14.337Z,23.05
2018-12-09T18:58:41.568Z,23.06
2018-12-09T19:01:08.720Z,23.07
2018-12-09T19:03:36.290Z,23.05
2018-12-09T19:06:03.174Z,23.06
2018-12-09T19:08:30.231Z,23.05
2018-12-09T19:10:57.153Z,23.06
2018-12-09T19:13:23.840Z,23.10
2018-12-09T19:15:50.674Z,23.08
2018-12-09T19:18:17.805Z,23.09
2018-12-09T19:20:45.315Z,23.05
2018-12-09T19:23:12.263Z,23.08
2018-12-09T19:25:39.142Z,23.03
2018-12-09T19:28:06.303Z,23.04
2018-12-09T19:30:33.689Z,22.92
2018-12-09T19:33:00.791Z,23.03
2018-12-09T19:35:28.217Z,23.01
2018-12-09T19:37:55.671Z,23.03
2018-12-09T19:40:22.702Z,23.00
2018-12-09T19:42:50.372Z,23.01
2018-12-09T19:45:17.724Z,22.97
2018-12-09T19:47:45.060Z,23.00
2018-12-09T19:50:12.331Z,22.99
2018-12-09T19:52:39.478Z,22.99
2018-12-09T19:55:06.411Z,22.96
2018-12-09T19:57:33.779Z,22.96
2018-12-09T20:00:00.709Z,22.94
2018-12-09T20:02:27.329Z,22.95
2018-12-09T20:04:53.992Z,22.93
2018-12-09T20:07:20.670Z,22.94
2018-12-09T20:09:47.357Z,22.96
2018-12-09T20:12:14.108Z,22.94
2018-12-09T20:14:40.749Z,22.93
2018-12-09T20:17:07.510Z,22.95
2018-12-09T20:19:34.216Z,22.91
2018-12-09T20:22:00.917Z,22.91
2018-12-09T20:24:27.608Z,22.92
2018-12-09T20:26:54.327Z,22.92
2018-12-09T20:29:21.055Z,22.91
2018-12-09T20:31:47.698Z,22.90
2018-12-09T20:34:14.341Z,22.90
2018-12-09T20:36:41.009Z,22.91
2018-12-09T20:39:07.668Z,22.89
2018-12-09T20:41:34.711Z,22.87
2018-12-09T20:44:01.398Z,22.88
2018-12-09T20:46:28.034Z,22.86
2018-12-09T20:48:54.686Z,22.87
2018-12-09T20:51:21.341Z,22.85
2018-12-09T20:53:47.976Z,22.90
2018-12-09T20:56:14.622Z,22.85
2018-12-09T20:58:41.260Z,22.87
2018-12-09T21:01:07.964Z,22.86
2018-12-09T21:03:34.614Z,22.89
2018-12-09T21:06:01.300Z,22.84
2018-12-09T21:08:27.926Z,22.86
2018-12-09T21:10:54.569Z,22.84
2018-12-09T21:13:21.210Z,22.85
2018-12-09T21:15:47.899Z,22.85
2018-12-09T21:18:14.549Z,22.89
2018-12-09T21:20:41.192Z,22.80
2018-12-09T21:23:07.858Z,22.82
2018-12-09T21:25:34.548Z,22.80
2018-12-09T21:28:01.200Z,22.80
2018-12-09T21:30:27.844Z,22.78
2018-12-09T21:32:54.487Z,22.82
2018-12-09T21:35:21.139Z,22.81
2018-12-09T21:37:47.835Z,22.84
2018-12-09T21:40:14.528Z,22.83
2018-12-09T21:42:41.164Z,22.85
2018-12-09T21:45:07.819Z,22.81
2018-12-09T21:47:34.505Z,22.83
2018-12-09T21:50:01.142Z,22.77
2018-12-09T21:52:27.903Z,22.79
2018-12-09T21:54:54.588Z,22.80
2018-12-09T21:57:21.336Z,22.79
2018-12-09T21:59:47.885Z,22.81
2018-12-09T22:02:14.586Z,22.78
2018-12-09T22:04:41.224Z,22.79
2018-12-09T22:07:07.867Z,22.79
2018-12-09T22:09:34.563Z,22.80
2018-12-09T22:12:01.240Z,22.79
2018-12-09T22:14:27.885Z,22.83
2018-12-09T22:16:54.541Z,22.77
2018-12-09T22:19:21.206Z,22.76
2018-12-09T22:21:47.863Z,22.75
2018-12-09T22:24:14.506Z,22.78
2018-12-09T22:26:41.163Z,22.73
2018-12-09T22:29:07.805Z,22.74
2018-12-09T22:31:34.454Z,22.77
2018-12-09T22:34:01.088Z,22.77
2018-12-09T22:36:27.727Z,22.74
2018-12-09T22:38:54.486Z,22.75
2018-12-09T22:41:24.372Z,22.75
2018-12-09T22:43:51.029Z,22.72
2018-12-09T22:46:17.696Z,22.71
2018-12-09T22:48:44.352Z,22.74
2018-12-09T22:51:11.022Z,22.71
2018-12-09T22:53:37.668Z,22.75
2018-12-09T22:56:04.358Z,22.70
2018-12-09T22:58:31.046Z,22.71
2018-12-09T23:00:57.687Z,22.68
2018-12-09T23:03:24.372Z,22.75
2018-12-09T23:05:51.009Z,22.69
2018-12-09T23:08:17.712Z,22.74
2018-12-09T23:10:44.406Z,22.70
2018-12-09T23:13:11.036Z,22.72
2018-12-09T23:15:37.672Z,22.67
2018-12-09T23:18:04.329Z,22.71
2018-12-09T23:20:31.026Z,22.70
2018-12-09T23:22:57.723Z,22.71
2018-12-09T23:25:24.366Z,22.65
2018-12-09T23:27:51.008Z,22.69
2018-12-09T23:30:17.719Z,22.72
2018-12-09T23:32:44.411Z,22.69
2018-12-09T23:35:11.055Z,22.69
2018-12-09T23:37:37.704Z,22.70
2018-12-09T23:40:04.350Z,22.66
2018-12-09T23:42:30.994Z,22.68
2018-12-09T23:44:57.683Z,22.66
2018-12-09T23:47:24.335Z,22.65
2018-12-09T23:49:51.014Z,22.64
2018-12-09T23:52:17.671Z,22.66
2018-12-09T23:54:47.337Z,22.66
2018-12-09T23:57:13.931Z,22.78
2018-12-09T23:59:40.683Z,22.57
